createdAt,value
2023-01-01T00:00:43.541Z,100425.84
2023-01-01T00:03:10.527Z,100431.75
2023-01-01T00:05:40.868Z,100428.63
2023-01-01T00:08:07.864Z,100421.50
2023-01-01T00:10:35.063Z,100410.81
2023-01-01T00:13:02.530Z,100412.78
2023-01-01T00:15:29.592Z,100415.16
2023-01-01T00:17:57.907Z,100437.69
2023-01-01T00:20:29.987Z,100432.16
2023-01-01T00:23:00.208Z,100432.22
2023-01-01T00:25:27.204Z,100422.84
2023-01-01T00:27:54.261Z,100442.63
2023-01-01T00:30:21.283Z,100439.50
2023-01-01T00:32:54.700Z,100443.06
2023-01-01T00:35:24.070Z,100435.53
2023-01-01T00:37:51.093Z,100441.06
2023-01-01T00:40:18.822Z,100429.97
2023-01-01T00:42:46.114Z,100441.78
2023-01-01T00:45:18.808Z,100444.94
2023-01-01T00:47:48.631Z,100442.19
2023-01-01T00:50:16.024Z,100456.44
2023-01-01T00:52:43.311Z,100439.03
2023-01-01T00:55:10.697Z,100453.25
2023-01-01T00:57:37.682Z,100451.69
2023-01-01T01:00:06.257Z,100462.31
2023-01-01T01:02:33.543Z,100459.88
2023-01-01T01:05:01.561Z,100449.56
2023-01-01T01:07:28.556Z,100463.75
2023-01-01T01:09:55.660Z,100451.09
2023-01-01T01:12:22.626Z,100472.09
2023-01-01T01:14:49.583Z,100461.44
2023-01-01T01:17:17.294Z,100456.00
2023-01-01T01:19:44.419Z,100458.50
2023-01-01T01:22:11.313Z,100484.38
2023-01-01T01:24:38.213Z,100475.78
2023-01-01T01:27:05.144Z,100486.50
2023-01-01T01:29:32.112Z,100462.66
2023-01-01T01:31:59.020Z,100489.75
2023-01-01T01:34:28.282Z,100493.84
2023-01-01T01:36:57.376Z,100494.47
2023-01-01T01:39:24.331Z,100482.56
2023-01-01T01:41:51.183Z,100505.09
2023-01-01T01:44:49.098Z,100489.97
2023-01-01T01:47:34.007Z,100499.75
2023-01-01T01:50:25.724Z,100507.69
2023-01-01T01:53:09.385Z,100497.78
2023-01-01T01:55:39.718Z,100511.59
2023-01-01T01:58:10.928Z,100508.03
2023-01-01T02:00:38.103Z,100517.13
2023-01-01T02:03:12.600Z,100513.97
2023-01-01T02:05:41.447Z,100510.78
2023-01-01T02:08:09.723Z,100513.16
2023-01-01T02:10:37.185Z,100510.03
2023-01-01T02:13:04.238Z,100511.59
2023-01-01T02:15:39.568Z,100508.44
2023-01-01T02:18:13.528Z,100506.41
2023-01-01T02:20:53.598Z,100502.84
2023-01-01T02:23:38.383Z,100507.50
2023-01-01T02:26:05.341Z,100512.03
2023-01-01T02:29:00.175Z,100502.88
2023-01-01T02:31:34.370Z,100505.53
2023-01-01T02:34:05.939Z,100492.13
2023-01-01T02:36:36.655Z,100498.81
2023-01-01T02:39:06.670Z,100483.84
2023-01-01T02:41:41.701Z,100490.16
2023-01-01T02:44:09.077Z,100506.75
2023-01-01T02:46:36.731Z,100513.13
2023-01-01T02:49:09.889Z,100512.78
2023-01-01T02:52:01.809Z,100522.28
2023-01-01T02:54:42.136Z,100532.97
2023-01-01T02:57:24.161Z,100540.53
2023-01-01T03:00:19.433Z,100546.03
2023-01-01T03:03:31.355Z,100543.28
2023-01-01T03:06:23.799Z,100558.69
2023-01-01T03:08:58.145Z,100557.66
2023-01-01T03:11:35.207Z,100551.78
2023-01-01T03:14:43.432Z,100544.72
2023-01-01T03:17:20.989Z,100553.75
2023-01-01T03:19:51.025Z,100550.97
2023-01-01T03:22:21.342Z,100548.88
2023-01-01T03:24:59.356Z,100555.47
2023-01-01T03:27:31.531Z,100551.91
2023-01-01T03:30:05.614Z,100546.00
2023-01-01T03:32:58.132Z,100549.97
2023-01-01T03:35:47.302Z,100553.16
2023-01-01T03:38:21.886Z,100547.19
2023-01-01T03:40:54.240Z,100555.81
2023-01-01T03:43:50.913Z,100553.47
2023-01-01T03:46:23.388Z,100551.16
2023-01-01T03:49:02.658Z,100555.94
2023-01-01T03:51:30.794Z,100579.97
2023-01-01T03:54:06.384Z,100576.84
2023-01-01T03:56:46.152Z,100570.91
2023-01-01T03:59:23.967Z,100575.56
2023-01-01T04:01:57.260Z,100578.25
2023-01-01T04:04:27.535Z,100578.97
2023-01-01T04:06:55.648Z,100573.41
2023-01-01T04:09:30.334Z,100577.38
2023-01-01T04:12:04.830Z,100586.81
2023-01-01T04:14:37.773Z,100593.16
2023-01-01T04:17:06.591Z,100575.78
2023-01-01T04:19:33.930Z,100559.19
2023-01-01T04:22:01.742Z,100579.25
2023-01-01T04:24:29.041Z,100585.13
2023-01-01T04:26:56.557Z,100578.75
2023-01-01T04:29:23.634Z,100566.50
2023-01-01T04:31:50.749Z,100571.59
2023-01-01T04:34:17.784Z,100591.34
2023-01-01T04:36:44.702Z,100611.09
2023-01-01T04:39:11.619Z,100616.66
2023-01-01T04:41:38.521Z,100620.69
2023-01-01T04:44:05.773Z,100620.34
2023-01-01T04:46:32.721Z,100615.97
2023-01-01T04:48:59.715Z,100625.00
2023-01-01T04:51:26.580Z,100629.44
2023-01-01T04:53:53.568Z,100639.72
2023-01-01T04:56:22.570Z,100628.63
2023-01-01T04:58:50.002Z,100631.31
2023-01-01T05:01:23.083Z,100625.00
2023-01-01T05:03:52.146Z,100628.94
2023-01-01T05:06:20.964Z,100650.97
2023-01-01T05:08:50.039Z,100657.22
2023-01-01T05:11:22.399Z,100648.16
2023-01-01T05:13:53.440Z,100650.53
2023-01-01T05:16:22.478Z,100656.44
2023-01-01T05:18:50.387Z,100656.34
2023-01-01T05:21:28.890Z,100651.72
2023-01-01T05:23:57.396Z,100644.59
2023-01-01T05:26:28.216Z,100652.38
2023-01-01T05:28:56.976Z,100676.41
2023-01-01T05:31:26.063Z,100663.75
2023-01-01T05:33:53.644Z,100676.00
2023-01-01T05:36:23.610Z,100668.88
2023-01-01T05:38:51.669Z,100668.44
2023-01-01T05:41:20.583Z,100676.66
2023-01-01T05:43:48.347Z,100687.28
2023-01-01T05:46:18.835Z,100668.69
2023-01-01T05:48:47.253Z,100698.59
2023-01-01T05:51:17.213Z,100709.16
2023-01-01T05:53:47.217Z,100709.47
2023-01-01T05:56:16.086Z,100700.72
2023-01-01T05:58:44.219Z,100708.09
2023-01-01T06:01:20.510Z,100713.03
2023-01-01T06:03:51.068Z,100718.03
2023-01-01T06:06:20.237Z,100720.94
2023-01-01T06:08:55.390Z,100735.88
2023-01-01T06:11:22.963Z,100744.97
2023-01-01T06:13:53.420Z,100743.00
2023-01-01T06:16:20.561Z,100738.94
2023-01-01T06:18:47.431Z,100757.53
2023-01-01T06:21:17.084Z,100777.63
2023-01-01T06:23:44.311Z,100777.97
2023-01-01T06:26:27.410Z,100775.28
2023-01-01T06:28:55.797Z,100786.41
2023-01-01T06:31:23.285Z,100773.78
2023-01-01T06:33:51.199Z,100789.88
2023-01-01T06:36:21.370Z,100789.47
2023-01-01T06:38:50.603Z,100794.09
2023-01-01T06:41:20.274Z,100804.75
2023-01-01T06:43:48.392Z,100798.78
2023-01-01T06:46:18.889Z,100803.16
2023-01-01T06:48:48.038Z,100803.50
2023-01-01T06:51:20.624Z,100811.34
2023-01-01T06:53:49.018Z,100817.16
2023-01-01T06:56:17.129Z,100813.59
2023-01-01T06:58:44.375Z,100827.47
2023-01-01T07:01:17.409Z,100844.78
2023-01-01T07:03:45.924Z,100841.97
2023-01-01T07:06:12.835Z,100844.16
2023-01-01T07:08:39.736Z,100861.44
2023-01-01T07:11:06.652Z,100846.88
2023-01-01T07:13:33.655Z,100859.47
2023-01-01T07:16:00.980Z,100863.03
2023-01-01T07:18:28.897Z,100861.78
2023-01-01T07:20:58.462Z,100871.50
2023-01-01T07:23:26.521Z,100884.03
2023-01-01T07:25:54.651Z,100887.94
2023-01-01T07:28:23.022Z,100902.91
2023-01-01T07:30:50.186Z,100910.25
2023-01-01T07:33:19.671Z,100916.13
2023-01-01T07:35:47.494Z,100925.56
2023-01-01T07:38:16.087Z,100920.38
2023-01-01T07:40:43.387Z,100930.16
2023-01-01T07:43:12.698Z,100933.34
2023-01-01T07:45:40.293Z,100940.84
2023-01-01T07:48:12.976Z,100952.66
2023-01-01T07:50:41.777Z,100957.72
2023-01-01T07:53:08.640Z,100956.59
2023-01-01T07:55:36.233Z,100966.09
2023-01-01T07:58:03.524Z,100965.19
2023-01-01T08:00:30.523Z,100994.69
2023-01-01T08:02:58.782Z,101006.09
2023-01-01T08:05:27.165Z,100993.91
2023-01-01T08:07:55.113Z,101018.00
2023-01-01T08:10:22.149Z,101030.06
2023-01-01T08:12:49.402Z,101032.03
2023-01-01T08:15:17.554Z,101046.16
2023-01-01T08:17:47.127Z,101041.19
2023-01-01T08:20:14.746Z,101044.75
2023-01-01T08:22:41.577Z,101031.09
2023-01-01T08:25:09.425Z,101028.31
2023-01-01T08:27:36.622Z,101031.84
2023-01-01T08:30:04.105Z,101039.09
2023-01-01T08:32:30.970Z,101051.25
2023-01-01T08:34:57.912Z,101050.53
2023-01-01T08:37:25.014Z,101065.13
2023-01-01T08:39:54.724Z,101061.25
2023-01-01T08:42:21.719Z,101076.59
2023-01-01T08:44:48.612Z,101084.88
2023-01-01T08:47:21.786Z,101082.91
2023-01-01T08:49:48.936Z,101085.69
2023-01-01T08:52:17.179Z,101084.88
2023-01-01T08:54:44.350Z,101091.09
2023-01-01T08:57:11.995Z,101095.00
2023-01-01T08:59:38.927Z,101082.13
2023-01-01T09:02:06.949Z,101094.75
2023-01-01T09:04:34.283Z,101105.78
2023-01-01T09:07:01.158Z,101110.47
2023-01-01T09:09:31.715Z,101105.34
2023-01-01T09:12:04.349Z,101112.00
2023-01-01T09:14:32.493Z,101112.44
2023-01-01T09:16:59.576Z,101124.63
2023-01-01T09:19:26.879Z,101136.00
2023-01-01T09:21:54.458Z,101132.00
2023-01-01T09:24:21.381Z,101136.00
2023-01-01T09:26:48.245Z,101145.06
2023-01-01T09:29:18.931Z,101132.78
2023-01-01T09:31:46.162Z,101142.31
2023-01-01T09:34:13.208Z,101146.31
2023-01-01T09:36:40.628Z,101139.28
2023-01-01T09:39:07.685Z,101138.59
2023-01-01T09:41:55.164Z,101144.22
2023-01-01T09:44:33.104Z,101138.69
2023-01-01T09:47:04.090Z,101143.41
2023-01-01T09:49:44.751Z,101134.00
2023-01-01T09:52:14.814Z,101136.03
2023-01-01T09:54:57.460Z,101135.69
2023-01-01T09:57:31.052Z,101142.81
2023-01-01T09:59:59.558Z,101145.22
2023-01-01T10:03:00.585Z,101146.00
2023-01-01T10:05:32.543Z,101158.06
2023-01-01T10:08:23.009Z,101146.06
2023-01-01T10:11:08.546Z,101159.94
2023-01-01T10:13:42.770Z,101146.16
2023-01-01T10:16:24.794Z,101160.06
2023-01-01T10:18:56.460Z,101159.25
2023-01-01T10:21:38.637Z,101178.66
2023-01-01T10:24:37.151Z,101178.22
2023-01-01T10:27:05.888Z,101167.88
2023-01-01T10:29:48.918Z,101178.09
2023-01-01T10:32:26.666Z,101172.50
2023-01-01T10:34:53.722Z,101181.91
2023-01-01T10:37:21.832Z,101179.53
2023-01-01T10:39:49.145Z,101181.47
2023-01-01T10:42:17.672Z,101199.69
2023-01-01T10:44:45.116Z,101193.84
2023-01-01T10:47:26.485Z,101187.63
2023-01-01T10:50:07.963Z,101182.13
2023-01-01T10:52:37.703Z,101187.63
2023-01-01T10:55:06.529Z,101182.00
2023-01-01T10:57:39.011Z,101185.47
2023-01-01T11:00:10.890Z,101174.00
2023-01-01T11:02:38.038Z,101178.72
2023-01-01T11:05:22.766Z,101183.09
2023-01-01T11:07:50.335Z,101184.78
2023-01-01T11:10:21.159Z,101200.50
2023-01-01T11:13:06.508Z,101183.53
2023-01-01T11:15:39.995Z,101207.38
2023-01-01T11:18:16.160Z,101217.97
2023-01-01T11:20:43.931Z,101223.81
2023-01-01T11:23:28.650Z,101240.84
2023-01-01T11:26:09.008Z,101237.06
2023-01-01T11:28:36.172Z,101244.09
2023-01-01T11:31:26.577Z,101260.63
2023-01-01T11:33:55.425Z,101260.19
2023-01-01T11:36:33.768Z,101252.72
2023-01-01T11:39:13.889Z,101257.63
2023-01-01T11:41:49.509Z,101257.94
2023-01-01T11:44:36.185Z,101259.25
2023-01-01T11:47:06.450Z,101253.66
2023-01-01T11:49:34.683Z,101255.72
2023-01-01T11:52:21.527Z,101241.66
2023-01-01T11:54:48.911Z,101256.28
2023-01-01T11:57:21.927Z,101255.91
2023-01-01T12:00:00.704Z,101246.91
2023-01-01T12:02:37.071Z,101245.75
2023-01-01T12:05:48.993Z,101250.56
2023-01-01T12:08:25.977Z,101263.69
2023-01-01T12:10:58.530Z,101257.81
2023-01-01T12:13:30.768Z,101262.69
2023-01-01T12:16:09.613Z,101250.22
2023-01-01T12:18:47.824Z,101253.09
2023-01-01T12:21:23.884Z,101243.28
2023-01-01T12:23:51.193Z,101241.34
2023-01-01T12:26:41.933Z,101248.81
2023-01-01T12:29:15.024Z,101248.03
2023-01-01T12:32:10.597Z,101248.38
2023-01-01T12:34:51.649Z,101254.34
2023-01-01T12:37:52.454Z,101261.03
2023-01-01T12:40:25.472Z,101269.31
2023-01-01T12:43:02.833Z,101274.66
2023-01-01T12:45:38.994Z,101268.22
2023-01-01T12:48:18.101Z,101263.34
2023-01-01T12:51:04.977Z,101262.44
2023-01-01T12:53:50.503Z,101270.72
2023-01-01T12:56:27.040Z,101271.06
2023-01-01T12:59:19.084Z,101267.16
2023-01-01T13:01:47.864Z,101260.47
2023-01-01T13:04:19.107Z,101271.25
2023-01-01T13:07:03.936Z,101265.81
2023-01-01T13:09:34.903Z,101269.84
2023-01-01T13:12:09.539Z,101265.81
2023-01-01T13:14:41.405Z,101276.34
2023-01-01T13:17:27.417Z,101274.28
2023-01-01T13:20:17.098Z,101272.31
2023-01-01T13:22:45.004Z,101277.47
2023-01-01T13:25:12.326Z,101274.38
2023-01-01T13:27:58.179Z,101277.47
2023-01-01T13:30:37.399Z,101271.97
2023-01-01T13:33:26.313Z,101270.34
2023-01-01T13:36:09.740Z,101277.75
2023-01-01T13:38:53.224Z,101280.03
2023-01-01T13:41:46.191Z,101285.94
2023-01-01T13:44:23.256Z,101284.31
2023-01-01T13:47:22.582Z,101288.94
2023-01-01T13:50:09.650Z,101297.56
2023-01-01T13:52:54.002Z,101296.31
2023-01-01T13:55:44.671Z,101295.06
2023-01-01T13:58:59.427Z,101296.66
2023-01-01T14:01:40.929Z,101300.47
2023-01-01T14:04:17.654Z,101319.81
2023-01-01T14:06:50.783Z,101332.78
2023-01-01T14:09:20.354Z,101326.47
2023-01-01T14:11:48.676Z,101323.16
2023-01-01T14:14:24.718Z,101319.84
2023-01-01T14:16:53.721Z,101318.16
2023-01-01T14:19:21.495Z,101319.53
2023-01-01T14:21:48.800Z,101324.16
2023-01-01T14:24:19.160Z,101331.97
2023-01-01T14:26:47.839Z,101338.63
2023-01-01T14:29:25.004Z,101328.63
2023-01-01T14:31:52.207Z,101331.31
2023-01-01T14:34:25.542Z,101326.38
2023-01-01T14:36:55.219Z,101331.34
2023-01-01T14:39:28.304Z,101322.59
2023-01-01T14:42:04.648Z,101333.16
2023-01-01T14:44:39.359Z,101335.13
2023-01-01T14:47:27.009Z,101338.94
2023-01-01T14:50:01.285Z,101335.69
2023-01-01T14:52:31.303Z,101346.28
2023-01-01T14:54:59.863Z,101345.81
2023-01-01T14:57:30.884Z,101336.25
2023-01-01T14:59:58.124Z,101342.84
2023-01-01T15:02:29.143Z,101344.66
2023-01-01T15:04:58.145Z,101355.94
2023-01-01T15:07:30.449Z,101346.72
2023-01-01T15:10:03.940Z,101358.00
2023-01-01T15:12:34.624Z,101351.75
2023-01-01T15:15:02.092Z,101351.31
2023-01-01T15:17:44.542Z,101355.88
2023-01-01T15:20:23.512Z,101360.00
2023-01-01T15:22:52.143Z,101352.66
2023-01-01T15:25:20.298Z,101359.53
2023-01-01T15:27:52.399Z,101350.00
2023-01-01T15:30:25.867Z,101347.94
2023-01-01T15:32:53.988Z,101347.81
2023-01-01T15:35:30.958Z,101350.06
2023-01-01T15:38:24.199Z,101351.25
2023-01-01T15:40:53.892Z,101353.50
2023-01-01T15:43:30.705Z,101352.38
2023-01-01T15:46:17.790Z,101354.69
2023-01-01T15:48:53.142Z,101361.31
2023-01-01T15:51:22.906Z,101355.00
2023-01-01T15:53:55.056Z,101345.47
2023-01-01T15:56:25.622Z,101347.78
2023-01-01T15:58:56.047Z,101354.78
2023-01-01T16:01:26.393Z,101350.75
2023-01-01T16:04:13.983Z,101347.53
2023-01-01T16:06:47.397Z,101352.56
2023-01-01T16:09:17.243Z,101350.28
2023-01-01T16:11:44.996Z,101348.00
2023-01-01T16:14:12.302Z,101335.84
2023-01-01T16:16:43.715Z,101343.41
2023-01-01T16:19:17.126Z,101345.34
2023-01-01T16:21:44.285Z,101346.03
2023-01-01T16:24:15.903Z,101343.97
2023-01-01T16:26:43.242Z,101343.50
2023-01-01T16:29:10.866Z,101344.63
2023-01-01T16:31:38.252Z,101347.28
2023-01-01T16:34:05.598Z,101345.66
2023-01-01T16:36:32.862Z,101347.63
2023-01-01T16:39:00.051Z,101340.16
2023-01-01T16:41:31.074Z,101340.63
2023-01-01T16:43:58.410Z,101342.38
2023-01-01T16:46:28.146Z,101340.88
2023-01-01T16:48:55.476Z,101336.19
2023-01-01T16:51:28.903Z,101349.03
2023-01-01T16:53:57.413Z,101351.94
2023-01-01T16:56:24.369Z,101340.91
2023-01-01T16:58:58.133Z,101335.41
2023-01-01T17:01:29.169Z,101338.97
2023-01-01T17:03:56.468Z,101331.03
2023-01-01T17:06:23.400Z,101331.25
2023-01-01T17:08:50.897Z,101335.50
2023-01-01T17:11:18.752Z,101332.63
2023-01-01T17:13:47.984Z,101340.06
2023-01-01T17:16:23.307Z,101332.63
2023-01-01T17:19:14.314Z,101333.88
2023-01-01T17:21:40.259Z,101323.22
2023-01-01T17:24:07.682Z,101330.81
2023-01-01T17:26:35.070Z,101319.56
2023-01-01T17:29:03.533Z,101322.09
2023-01-01T17:31:31.375Z,101307.88
2023-01-01T17:33:58.377Z,101318.31
2023-01-01T17:36:27.638Z,101308.97
2023-01-01T17:38:55.432Z,101316.56
2023-01-01T17:41:23.150Z,101320.94
2023-01-01T17:43:51.867Z,101312.31
2023-01-01T17:46:26.609Z,101309.22
2023-01-01T17:48:54.391Z,101314.88
2023-01-01T17:51:21.773Z,101313.38
2023-01-01T17:53:49.789Z,101311.19
2023-01-01T17:56:18.915Z,101309.03
2023-01-01T17:58:47.126Z,101309.97
2023-01-01T18:01:14.392Z,101311.34
2023-01-01T18:03:41.681Z,101302.84
2023-01-01T18:06:08.810Z,101314.56
2023-01-01T18:08:36.087Z,101305.59
2023-01-01T18:11:02.942Z,101307.22
2023-01-01T18:13:30.142Z,101306.75
2023-01-01T18:16:08.477Z,101317.44
2023-01-01T18:18:37.580Z,101317.56
2023-01-01T18:21:11.460Z,101311.72
2023-01-01T18:23:40.003Z,101312.66
2023-01-01T18:26:09.820Z,101305.31
2023-01-01T18:28:37.626Z,101299.44
2023-01-01T18:31:09.865Z,101290.84
2023-01-01T18:33:37.805Z,101293.22
2023-01-01T18:36:12.042Z,101288.97
2023-01-01T18:38:40.740Z,101289.09
2023-01-01T18:41:41.267Z,101293.47
2023-01-01T18:44:14.928Z,101283.34
2023-01-01T18:46:42.535Z,101283.81
2023-01-01T18:49:11.463Z,101281.75
2023-01-01T18:51:38.472Z,101275.97
2023-01-01T18:54:13.007Z,101274.84
2023-01-01T18:56:40.338Z,101268.53
2023-01-01T18:59:33.624Z,101259.88
2023-01-01T19:02:00.735Z,101248.41
2023-01-01T19:04:27.924Z,101251.06
2023-01-01T19:06:54.887Z,101248.41
2023-01-01T19:09:24.565Z,101252.78
2023-01-01T19:11:53.673Z,101243.34
2023-01-01T19:14:23.063Z,101246.59
2023-01-01T19:16:52.361Z,101247.03
2023-01-01T19:19:21.733Z,101253.78
2023-01-01T19:21:52.224Z,101246.78
2023-01-01T19:24:25.045Z,101236.56
2023-01-01T19:27:15.819Z,101226.66
2023-01-01T19:29:45.004Z,101220.00
2023-01-01T19:32:12.670Z,101231.84
2023-01-01T19:34:39.935Z,101231.16
2023-01-01T19:37:09.221Z,101232.75
2023-01-01T19:39:36.347Z,101226.53
2023-01-01T19:42:05.079Z,101230.44
2023-01-01T19:44:32.385Z,101238.72
2023-01-01T19:47:00.814Z,101238.72
2023-01-01T19:49:28.392Z,101239.16
2023-01-01T19:51:55.733Z,101236.06
2023-01-01T19:54:23.225Z,101242.84
2023-01-01T19:56:50.485Z,101246.03
2023-01-01T19:59:18.358Z,101254.78
2023-01-01T20:01:46.012Z,101270.53
2023-01-01T20:04:13.206Z,101284.66
2023-01-01T20:06:40.637Z,101277.31
2023-01-01T20:09:07.562Z,101286.19
2023-01-01T20:11:36.066Z,101282.50
2023-01-01T20:14:03.793Z,101273.34
2023-01-01T20:16:31.031Z,101273.66
2023-01-01T20:18:58.136Z,101268.53
2023-01-01T20:21:43.927Z,101268.84
2023-01-01T20:24:11.128Z,101270.81
2023-01-01T20:26:38.216Z,101273.91
2023-01-01T20:29:20.858Z,101272.66
2023-01-01T20:31:50.072Z,101266.72
2023-01-01T20:34:17.433Z,101272.09
2023-01-01T20:37:04.989Z,101259.81
2023-01-01T20:39:32.309Z,101266.13
2023-01-01T20:41:59.255Z,101263.28
2023-01-01T20:44:26.950Z,101261.66
2023-01-01T20:46:54.186Z,101248.81
2023-01-01T20:49:21.751Z,101252.03
2023-01-01T20:51:53.437Z,101247.50
2023-01-01T20:54:21.716Z,101248.88
2023-01-01T20:56:48.747Z,101247.63
2023-01-01T20:59:35.730Z,101247.19
2023-01-01T21:02:04.745Z,101236.84
2023-01-01T21:04:32.252Z,101228.59
2023-01-01T21:06:59.090Z,101226.53
2023-01-01T21:09:25.981Z,101220.56
2023-01-01T21:11:52.999Z,101218.94
2023-01-01T21:14:24.045Z,101220.78
2023-01-01T21:16:51.946Z,101216.44
2023-01-01T21:19:26.053Z,101213.19
2023-01-01T21:21:56.047Z,101211.13
2023-01-01T21:24:27.637Z,101208.63
2023-01-01T21:27:22.922Z,101199.09
2023-01-01T21:29:53.079Z,101206.13
2023-01-01T21:32:33.030Z,101193.81
2023-01-01T21:34:59.999Z,101200.03
2023-01-01T21:37:48.240Z,101199.91
2023-01-01T21:40:49.088Z,101191.19
2023-01-01T21:43:23.407Z,101189.47
2023-01-01T21:45:50.708Z,101182.72
2023-01-01T21:48:27.401Z,101188.09
2023-01-01T21:50:55.475Z,101179.84
2023-01-01T21:53:33.968Z,101186.84
2023-01-01T21:56:17.465Z,101185.56
2023-01-01T21:59:04.582Z,101171.00
2023-01-01T22:01:43.934Z,101167.78
2023-01-01T22:04:10.969Z,101169.28
2023-01-01T22:06:50.434Z,101156.78
2023-01-01T22:09:29.346Z,101144.50
2023-01-01T22:12:14.574Z,101141.31
2023-01-01T22:14:44.215Z,101129.16
2023-01-01T22:17:37.087Z,101125.72
2023-01-01T22:20:23.014Z,101120.53
2023-01-01T22:22:50.142Z,101119.16
2023-01-01T22:25:23.483Z,101114.03
2023-01-01T22:27:51.018Z,101100.59
2023-01-01T22:30:17.816Z,101097.50
2023-01-01T22:32:52.119Z,101090.72
2023-01-01T22:35:23.992Z,101094.28
2023-01-01T22:37:55.689Z,101091.53
2023-01-01T22:40:29.355Z,101082.47
2023-01-01T22:42:57.775Z,101080.88
2023-01-01T22:45:24.705Z,101072.28
2023-01-01T22:47:51.817Z,101075.38
2023-01-01T22:50:24.760Z,101062.75
2023-01-01T22:52:51.991Z,101061.16
2023-01-01T22:55:19.028Z,101069.75
2023-01-01T22:57:46.171Z,101068.13
2023-01-01T23:00:15.002Z,101063.00
2023-01-01T23:02:42.449Z,101053.13
2023-01-01T23:05:09.957Z,101056.56
2023-01-01T23:07:41.897Z,101039.25
2023-01-01T23:10:12.281Z,101037.31
2023-01-01T23:12:54.276Z,101032.63
2023-01-01T23:15:40.207Z,101034.91
2023-01-01T23:18:09.420Z,101041.56
2023-01-01T23:20:56.998Z,101033.75
2023-01-01T23:23:24.640Z,101030.56
2023-01-01T23:25:51.689Z,101033.75
2023-01-01T23:28:19.091Z,101019.56
2023-01-01T23:30:46.819Z,101015.88
2023-01-01T23:33:14.083Z,101012.31
2023-01-01T23:35:41.024Z,101002.81
2023-01-01T23:38:08.124Z,101005.94
2023-01-01T23:40:35.026Z,100996.88
2023-01-01T23:43:01.945Z,101003.88
2023-01-01T23:45:28.950Z,100991.13
2023-01-01T23:47:56.651Z,100997.31
2023-01-01T23:50:24.338Z,100994.94
2023-01-01T23:52:51.393Z,100987.13
2023-01-01T23:55:18.358Z,100985.88
2023-01-01T23:57:46.768Z,100983.81
